Time;durP1;ratioP1;P1;durP2;ratioP2;P2;SDS_P1;SDS_P2;PMS_P1;PMS_P2;Temp;Humidity;BMP_temperature;BMP_pressure;BME280_temperature;BME280_humidity;BME280_pressure;Samples;Min_cycle;Max_cycle;Signal;HPM_P1;HPM_P2
2022/05/22 00:01:46;;;;;;;3.10;2.33;;;14.30;99.90;;;;;;5062166;28;20451;-72
2022/05/22 00:04:32;;;;;;;6.27;2.17;;;14.10;99.90;;;;;;5065264;28;20442;-72
2022/05/22 00:07:18;;;;;;;10.30;3.83;;;14.10;99.90;;;;;;5068770;28;20417;-72
2022/05/22 00:10:05;;;;;;;4.17;2.40;;;14.00;99.90;;;;;;5062401;28;20856;-72
2022/05/22 00:12:51;;;;;;;6.10;2.60;;;13.90;99.90;;;;;;5062066;28;20437;-72
2022/05/22 00:16:36;;;;;;;3.13;2.30;;;14.00;99.90;;;;;;5066092;28;20413;-72
2022/05/22 00:18:43;;;;;;;3.67;2.20;;;13.90;99.90;;;;;;5066276;28;22687;-72
2022/05/22 00:21:29;;;;;;;3.60;2.27;;;14.00;99.90;;;;;;5061982;28;20448;-72
2022/05/22 00:24:16;;;;;;;4.47;2.97;;;14.00;99.90;;;;;;5068124;28;20895;-72
2022/05/22 00:27:02;;;;;;;2.30;1.83;;;14.00;99.90;;;;;;5067633;28;20644;-72
2022/05/22 00:29:48;;;;;;;3.07;2.70;;;14.10;99.90;;;;;;5067287;28;20517;-72
2022/05/22 00:32:33;;;;;;;4.43;2.67;;;14.10;99.90;;;;;;5062427;28;21014;-72
2022/05/22 00:35:20;;;;;;;4.73;2.53;;;14.20;99.90;;;;;;5064444;28;20528;-72
2022/05/22 00:38:06;;;;;;;5.93;2.23;;;14.20;99.90;;;;;;5067376;28;20801;-72
2022/05/22 00:40:52;;;;;;;8.27;2.90;;;14.00;99.90;;;;;;5064578;28;22294;-72
2022/05/22 00:43:42;;;;;;;3.33;2.60;;;13.80;99.90;;;;;;5065991;28;20418;-72
2022/05/22 00:46:30;;;;;;;5.83;2.53;;;13.60;99.90;;;;;;5064296;28;20450;-73
2022/05/22 00:49:25;;;;;;;4.70;2.87;;;13.40;99.90;;;;;;5064227;28;20470;-72
2022/05/22 00:52:16;;;;;;;5.43;2.83;;;13.30;99.90;;;;;;5058664;28;20446;-71
2022/05/22 00:55:08;;;;;;;4.37;2.60;;;13.20;99.90;;;;;;5067502;28;20437;-72
2022/05/22 00:57:56;;;;;;;3.90;2.70;;;13.20;99.90;;;;;;5067393;28;20465;-72
2022/05/22 01:00:42;;;;;;;3.83;2.70;;;12.90;99.90;;;;;;5066585;28;20822;-72
2022/05/22 01:03:31;;;;;;;3.40;2.13;;;12.90;99.90;;;;;;5064030;28;20989;-71
2022/05/22 01:06:20;;;;;;;4.70;2.50;;;12.80;99.90;;;;;;5059890;28;20451;-72
2022/05/22 01:09:07;;;;;;;4.83;2.77;;;12.90;99.90;;;;;;5066394;28;20588;-72
2022/05/22 01:11:56;;;;;;;3.60;2.57;;;13.00;99.90;;;;;;5060510;28;20436;-72
2022/05/22 01:14:43;;;;;;;6.80;2.73;;;13.10;99.90;;;;;;5066436;28;20481;-72
2022/05/22 01:17:29;;;;;;;3.63;2.47;;;13.10;99.90;;;;;;5063405;28;20449;-72
2022/05/22 01:20:16;;;;;;;4.57;2.20;;;13.10;99.90;;;;;;5059863;28;20495;-72
2022/05/22 01:23:03;;;;;;;3.57;2.40;;;13.20;99.90;;;;;;5063105;28;20480;-72
2022/05/22 01:25:49;;;;;;;4.00;2.43;;;13.40;99.90;;;;;;5064813;28;21198;-72
2022/05/22 01:28:34;;;;;;;4.67;2.30;;;13.50;99.90;;;;;;5067226;28;20475;-72
2022/05/22 01:31:20;;;;;;;3.80;2.53;;;13.50;99.90;;;;;;5063754;28;20458;-72
2022/05/22 01:34:06;;;;;;;8.07;2.67;;;13.40;99.90;;;;;;5068873;28;20504;-71
2022/05/22 01:36:51;;;;;;;9.80;3.50;;;13.20;99.90;;;;;;5066822;28;20401;-72
2022/05/22 01:39:38;;;;;;;5.23;3.13;;;13.00;99.90;;;;;;5068339;28;20568;-72
2022/05/22 01:42:24;;;;;;;4.93;2.50;;;13.00;99.90;;;;;;5065956;28;20457;-72
2022/05/22 01:45:13;;;;;;;3.57;2.77;;;13.10;99.90;;;;;;5066922;28;20974;-73
2022/05/22 01:47:59;;;;;;;4.10;2.87;;;13.20;99.90;;;;;;5069633;28;20949;-71
2022/05/22 01:50:46;;;;;;;4.40;2.70;;;13.20;99.90;;;;;;5064291;28;20458;-72
2022/05/22 01:53:31;;;;;;;4.40;3.17;;;13.10;99.90;;;;;;5069954;28;20441;-72
2022/05/22 01:56:18;;;;;;;5.50;3.00;;;12.90;99.90;;;;;;5065231;28;20417;-72
2022/05/22 01:59:04;;;;;;;6.13;2.60;;;12.90;99.90;;;;;;5070765;28;20845;-71
2022/05/22 02:01:50;;;;;;;4.83;2.80;;;12.90;99.90;;;;;;5063947;28;21030;-71
2022/05/22 02:04:36;;;;;;;3.43;2.40;;;12.80;99.90;;;;;;5068583;28;20623;-72
2022/05/22 02:10:26;;;;;;;5.23;2.43;;;12.70;99.90;;;;;;5088073;22;20502;-73
2022/05/22 02:13:16;;;;;;;2.97;2.37;;;12.80;99.90;;;;;;5061691;28;20421;-73
2022/05/22 02:16:02;;;;;;;4.40;2.90;;;12.80;99.90;;;;;;5060478;28;20433;-73
2022/05/22 02:18:48;;;;;;;4.57;2.90;;;12.90;99.90;;;;;;5065442;28;20507;-73
2022/05/22 02:21:33;;;;;;;7.70;2.90;;;12.80;99.90;;;;;;5040732;28;20414;-73
2022/05/22 02:24:19;;;;;;;3.87;2.70;;;12.80;99.90;;;;;;5043324;28;20414;-74
2022/05/22 02:27:07;;;;;;;3.50;2.67;;;12.80;99.90;;;;;;5041328;28;20452;-73
2022/05/22 02:29:54;;;;;;;3.13;2.27;;;12.60;99.90;;;;;;5045445;28;20449;-73
2022/05/22 02:32:40;;;;;;;5.13;2.80;;;12.60;99.90;;;;;;5049016;28;20459;-74
2022/05/22 02:35:25;;;;;;;4.63;2.70;;;12.60;99.90;;;;;;5040866;28;20577;-73
2022/05/22 02:38:12;;;;;;;3.70;2.90;;;12.50;99.90;;;;;;5041325;28;20414;-72
2022/05/22 02:40:58;;;;;;;5.23;3.03;;;12.50;99.90;;;;;;5040587;28;20480;-73
2022/05/22 02:43:44;;;;;;;4.23;2.47;;;12.40;99.90;;;;;;5047055;28;20451;-73
2022/05/22 02:46:31;;;;;;;5.43;2.30;;;12.30;99.90;;;;;;5042359;28;20804;-73
2022/05/22 02:49:17;;;;;;;3.43;2.30;;;12.30;99.90;;;;;;5041969;28;20514;-73
2022/05/22 02:52:02;;;;;;;11.03;2.90;;;12.20;99.90;;;;;;5041837;28;20450;-74
2022/05/22 02:54:48;;;;;;;3.37;2.80;;;12.10;99.90;;;;;;5038548;28;20594;-73
2022/05/22 02:57:35;;;;;;;4.23;3.20;;;11.90;99.90;;;;;;5045134;28;20426;-73
2022/05/22 03:00:23;;;;;;;3.50;2.30;;;11.80;99.90;;;;;;5046534;28;21017;-73
2022/05/22 03:03:11;;;;;;;5.13;2.40;;;11.90;99.90;;;;;;5043578;28;20783;-73
2022/05/22 03:08:59;;;;;;;5.80;2.80;;;12.10;99.90;;;;;;5039135;28;20512;-72
2022/05/22 03:11:45;;;;;;;6.53;2.90;;;12.20;99.90;;;;;;5043592;28;20967;-73
2022/05/22 03:14:30;;;;;;;3.67;2.70;;;12.30;99.90;;;;;;5040889;28;20580;-72
2022/05/22 03:17:16;;;;;;;4.07;3.10;;;12.40;99.90;;;;;;5043381;28;20509;-73
2022/05/22 03:20:05;;;;;;;5.87;2.90;;;12.50;99.90;;;;;;5037427;28;20463;-73
2022/05/22 03:22:50;;;;;;;7.00;2.43;;;12.50;99.90;;;;;;5043115;28;20431;-73
2022/05/22 03:25:36;;;;;;;8.43;2.53;;;12.50;99.90;;;;;;5038101;28;20451;-73
2022/05/22 03:28:23;;;;;;;4.60;2.83;;;12.50;99.90;;;;;;5048790;28;20591;-74
2022/05/22 03:31:08;;;;;;;3.83;2.43;;;12.30;99.90;;;;;;5050610;28;20458;-73
2022/05/22 03:33:54;;;;;;;4.07;2.63;;;12.10;99.90;;;;;;5040709;28;20452;-73
2022/05/22 03:36:41;;;;;;;5.53;3.17;;;11.90;99.90;;;;;;5040268;28;20429;-72
2022/05/22 03:39:27;;;;;;;5.87;3.07;;;11.60;99.90;;;;;;5040982;28;20593;-72
2022/05/22 03:42:13;;;;;;;7.10;2.90;;;11.40;99.90;;;;;;5038804;28;20419;-72
2022/05/22 03:44:58;;;;;;;4.13;2.73;;;11.40;99.90;;;;;;5040322;28;20511;-72
2022/05/22 03:47:44;;;;;;;4.10;3.00;;;11.40;99.90;;;;;;5043182;28;20448;-72
2022/05/22 03:50:30;;;;;;;3.60;2.63;;;11.30;99.90;;;;;;5038657;28;20475;-72
2022/05/22 03:53:17;;;;;;;4.03;3.30;;;11.30;99.90;;;;;;5044531;28;20425;-73
2022/05/22 03:56:10;;;;;;;3.13;2.53;;;11.20;99.90;;;;;;5036792;28;20456;-73
2022/05/22 03:58:56;;;;;;;5.07;2.83;;;11.40;99.90;;;;;;5039886;28;20453;-73
2022/05/22 04:01:41;;;;;;;4.00;2.90;;;11.60;99.90;;;;;;5042418;28;20944;-73
2022/05/22 04:04:27;;;;;;;7.80;2.77;;;11.80;99.90;;;;;;5039073;28;20464;-73
2022/05/22 04:07:13;;;;;;;3.50;2.43;;;11.90;99.90;;;;;;5038924;28;20419;-73
2022/05/22 04:10:00;;;;;;;5.50;2.97;;;12.00;99.90;;;;;;5038538;28;20529;-72
2022/05/22 04:12:46;;;;;;;5.20;2.77;;;12.20;99.90;;;;;;5043889;28;20452;-73
2022/05/22 04:15:32;;;;;;;3.57;2.60;;;12.30;99.90;;;;;;5050459;28;20801;-72
2022/05/22 04:18:18;;;;;;;3.63;2.80;;;12.40;99.90;;;;;;5038890;28;20585;-72
2022/05/22 04:21:04;;;;;;;5.67;2.50;;;12.40;99.90;;;;;;5038686;28;20480;-73
2022/05/22 04:26:54;;;;;;;4.70;2.40;;;12.50;99.90;;;;;;5038863;28;20514;-73
2022/05/22 04:29:41;;;;;;;5.77;2.47;;;12.50;99.90;;;;;;5038881;28;20476;-73
2022/05/22 04:32:26;;;;;;;5.33;2.90;;;12.40;99.90;;;;;;5043625;28;20822;-73
2022/05/22 04:35:12;;;;;;;3.80;2.60;;;12.50;99.90;;;;;;5042383;28;20832;-73
2022/05/22 04:38:02;;;;;;;4.30;2.60;;;12.40;99.90;;;;;;5039437;28;20418;-73
2022/05/22 04:40:54;;;;;;;4.40;2.43;;;12.40;99.90;;;;;;5041975;28;20464;-72
2022/05/22 04:43:41;;;;;;;3.80;2.93;;;12.40;99.90;;;;;;5044534;28;20930;-73
2022/05/22 04:46:27;;;;;;;5.50;2.80;;;12.40;99.90;;;;;;5042649;28;20447;-72
2022/05/22 04:49:13;;;;;;;5.17;2.40;;;12.50;99.90;;;;;;5042104;28;20926;-72
2022/05/22 04:51:59;;;;;;;3.80;2.50;;;12.70;99.90;;;;;;5040218;28;20659;-73
2022/05/22 04:54:47;;;;;;;4.77;2.70;;;12.80;99.90;;;;;;5040727;28;20466;-72
2022/05/22 04:57:32;;;;;;;3.60;2.63;;;12.90;99.90;;;;;;5039443;28;20453;-73
2022/05/22 05:00:20;;;;;;;3.43;2.53;;;13.00;99.90;;;;;;5038900;28;20569;-73
2022/05/22 05:03:06;;;;;;;5.20;2.50;;;13.10;99.90;;;;;;5037332;28;20423;-72
2022/05/22 05:05:57;;;;;;;6.00;2.67;;;13.20;99.90;;;;;;5035716;28;20464;-72
2022/05/22 05:08:43;;;;;;;7.37;2.73;;;13.30;99.90;;;;;;5038059;28;20969;-73
2022/05/22 05:11:28;;;;;;;5.00;2.60;;;13.40;99.90;;;;;;5038188;28;21256;-72
2022/05/22 05:14:14;;;;;;;4.97;2.60;;;13.60;99.90;;;;;;5043716;28;20426;-73
2022/05/22 05:17:01;;;;;;;3.77;3.37;;;13.70;99.90;;;;;;5038274;28;20584;-73
2022/05/22 05:19:46;;;;;;;5.50;2.57;;;13.80;99.90;;;;;;5038140;28;20610;-72
2022/05/22 05:22:32;;;;;;;4.60;2.60;;;13.90;99.90;;;;;;5042001;28;20550;-72
2022/05/22 05:25:18;;;;;;;5.77;2.60;;;13.90;99.90;;;;;;5038162;28;20552;-73
2022/05/22 05:28:04;;;;;;;3.03;2.27;;;14.00;99.90;;;;;;5036730;28;20456;-73
2022/05/22 05:30:50;;;;;;;3.63;2.80;;;14.10;99.90;;;;;;5040570;28;20468;-73
2022/05/22 05:33:37;;;;;;;6.33;2.73;;;14.20;99.90;;;;;;5037376;28;20439;-73
2022/05/22 05:36:23;;;;;;;3.10;2.30;;;14.20;99.90;;;;;;5041315;28;20442;-74
2022/05/22 05:39:10;;;;;;;4.63;2.63;;;14.20;99.90;;;;;;5042946;28;20456;-73
2022/05/22 05:41:56;;;;;;;4.77;2.77;;;14.40;99.90;;;;;;5042326;28;20439;-74
2022/05/22 05:44:42;;;;;;;4.23;2.87;;;14.40;99.90;;;;;;5039911;28;20494;-73
2022/05/22 05:47:28;;;;;;;3.27;2.53;;;14.50;99.90;;;;;;5039080;28;20442;-73
2022/05/22 05:50:17;;;;;;;5.00;3.10;;;14.50;99.90;;;;;;5038344;28;20471;-73
2022/05/22 05:53:03;;;;;;;3.57;2.90;;;14.60;99.90;;;;;;5041092;28;20444;-73
2022/05/22 05:55:48;;;;;;;4.23;2.70;;;14.70;99.90;;;;;;5035953;28;20470;-73
2022/05/22 05:58:34;;;;;;;5.43;2.67;;;14.80;99.90;;;;;;5039346;28;20495;-73
2022/05/22 06:01:21;;;;;;;3.80;2.63;;;14.90;99.90;;;;;;5043911;28;20950;-72
2022/05/22 06:04:06;;;;;;;7.80;2.90;;;15.10;99.90;;;;;;5044729;28;20575;-72
2022/05/22 06:06:53;;;;;;;12.57;2.70;;;15.10;99.90;;;;;;5042768;28;20452;-73
2022/05/22 06:09:39;;;;;;;3.90;2.60;;;15.20;99.90;;;;;;5041025;28;20869;-73
2022/05/22 06:12:24;;;;;;;5.13;2.53;;;15.20;99.90;;;;;;5038152;28;20458;-73
2022/05/22 06:15:10;;;;;;;3.63;2.70;;;15.30;99.90;;;;;;5035895;28;20440;-74
2022/05/22 06:17:58;;;;;;;9.93;3.00;;;15.40;99.90;;;;;;5044187;28;20452;-72
2022/05/22 06:20:43;;;;;;;4.47;2.60;;;15.60;99.90;;;;;;5036335;28;20539;-73
2022/05/22 06:23:30;;;;;;;4.47;2.63;;;15.70;99.90;;;;;;5040485;28;20448;-73
2022/05/22 06:26:18;;;;;;;3.50;2.37;;;15.80;99.90;;;;;;5046536;28;20525;-72
2022/05/22 06:29:04;;;;;;;6.30;2.23;;;16.00;99.90;;;;;;5045788;28;20444;-72
2022/05/22 06:31:50;;;;;;;8.03;2.70;;;16.10;99.90;;;;;;5043477;28;20472;-73
2022/05/22 06:34:40;;;;;;;4.10;2.10;;;16.30;99.90;;;;;;5045417;28;20443;-73
2022/05/22 06:37:26;;;;;;;2.90;2.07;;;16.40;99.90;;;;;;5041559;28;20436;-74
2022/05/22 06:40:13;;;;;;;3.17;2.23;;;16.50;99.90;;;;;;5049066;28;20861;-74
2022/05/22 06:43:01;;;;;;;3.70;2.27;;;16.70;99.90;;;;;;5044251;28;20444;-73
2022/05/22 06:45:49;;;;;;;4.97;2.00;;;16.80;99.90;;;;;;5044971;28;20450;-74
2022/05/22 06:48:35;;;;;;;5.70;2.10;;;17.00;99.90;;;;;;5044021;28;20880;-72
2022/05/22 06:51:21;;;;;;;4.10;2.40;;;17.10;99.90;;;;;;5047193;28;20476;-73
2022/05/22 06:54:07;;;;;;;5.50;2.30;;;17.10;99.90;;;;;;5046500;28;20456;-73
2022/05/22 06:56:54;;;;;;;4.60;2.17;;;17.20;99.90;;;;;;5044006;28;20516;-72
2022/05/22 06:59:39;;;;;;;3.53;1.97;;;17.20;99.90;;;;;;5049603;28;20557;-72
2022/05/22 07:02:28;;;;;;;6.87;2.80;;;17.30;99.90;;;;;;5048129;28;20906;-73
2022/05/22 07:05:13;;;;;;;8.40;2.20;;;17.40;99.90;;;;;;5043623;28;20522;-71
2022/05/22 07:07:59;;;;;;;4.47;2.20;;;17.60;99.90;;;;;;5047905;28;21079;-73
2022/05/22 07:13:50;;;;;;;7.60;2.07;;;17.80;99.90;;;;;;5047241;28;20426;-73
2022/05/22 07:16:36;;;;;;;5.87;2.30;;;18.00;99.90;;;;;;5045571;28;20440;-71
2022/05/22 07:19:21;;;;;;;4.07;2.10;;;18.10;99.90;;;;;;5048253;28;20494;-72
2022/05/22 07:22:07;;;;;;;3.60;2.53;;;18.30;99.90;;;;;;5041001;28;20448;-73
2022/05/22 07:24:53;;;;;;;5.67;1.90;;;18.40;99.90;;;;;;5043918;28;20464;-72
2022/05/22 07:27:41;;;;;;;9.20;2.50;;;18.60;99.90;;;;;;5050856;28;20520;-71
2022/05/22 07:30:28;;;;;;;3.03;1.87;;;18.60;99.90;;;;;;5048557;28;20467;-71
2022/05/22 07:33:14;;;;;;;5.80;2.37;;;18.80;99.90;;;;;;5052759;28;20428;-71
2022/05/22 07:36:00;;;;;;;6.10;2.20;;;18.90;99.90;;;;;;5041342;28;20446;-71
2022/05/22 07:38:46;;;;;;;5.97;2.50;;;19.00;99.90;;;;;;5047902;28;20443;-72
2022/05/22 07:41:32;;;;;;;3.80;2.17;;;18.90;99.90;;;;;;5049229;28;21034;-71
2022/05/22 07:44:18;;;;;;;4.50;2.00;;;19.00;99.90;;;;;;5041383;28;20546;-73
2022/05/22 07:47:05;;;;;;;3.40;2.10;;;19.10;99.90;;;;;;5044570;28;20642;-74
2022/05/22 07:52:54;;;;;;;5.07;3.03;;;19.30;99.90;;;;;;5041677;28;20437;-73
2022/05/22 07:55:40;;;;;;;4.13;1.77;;;19.40;99.90;;;;;;5044735;28;20447;-73
2022/05/22 07:58:27;;;;;;;3.47;1.73;;;19.50;99.90;;;;;;5060144;28;20522;-73
2022/05/22 08:01:13;;;;;;;6.20;1.93;;;19.60;99.90;;;;;;5050128;28;20525;-72
2022/05/22 08:04:00;;;;;;;6.90;1.87;;;19.80;98.90;;;;;;5045791;28;20494;-73
2022/05/22 08:06:46;;;;;;;4.03;2.30;;;19.80;92.10;;;;;;5050850;28;20948;-73
2022/05/22 08:09:32;;;;;;;3.00;1.67;;;19.80;93.20;;;;;;5056397;28;20455;-76
2022/05/22 08:12:18;;;;;;;4.43;1.60;;;19.90;93.40;;;;;;5055675;28;20445;-75
2022/05/22 08:15:04;;;;;;;3.73;1.90;;;20.00;92.10;;;;;;5042310;28;20816;-75
2022/05/22 08:17:50;;;;;;;5.43;1.70;;;20.20;90.60;;;;;;5053175;28;20444;-75
2022/05/22 08:20:38;;;;;;;3.20;1.90;;;20.30;88.70;;;;;;5056569;28;20607;-75
2022/05/22 08:23:24;;;;;;;3.87;1.80;;;20.40;84.20;;;;;;5045968;28;20726;-75
2022/05/22 08:26:10;;;;;;;7.30;2.20;;;20.40;73.00;;;;;;5046068;28;20603;-75
2022/05/22 08:28:55;;;;;;;4.63;2.33;;;20.40;73.40;;;;;;5049124;28;20805;-75
2022/05/22 08:31:41;;;;;;;6.90;1.83;;;20.60;75.10;;;;;;5058192;28;20824;-75
2022/05/22 08:34:27;;;;;;;3.07;1.80;;;20.60;78.10;;;;;;5044234;28;20445;-75
2022/05/22 08:37:13;;;;;;;5.60;2.00;;;20.80;73.10;;;;;;5048360;28;20569;-75
2022/05/22 08:39:59;;;;;;;5.10;1.80;;;20.90;68.50;;;;;;5050507;28;20543;-73
2022/05/22 08:42:49;;;;;;;2.43;1.40;;;20.90;65.70;;;;;;5050297;28;20442;-75
2022/05/22 08:45:41;;;;;;;6.17;1.93;;;21.00;63.30;;;;;;5057810;28;20427;-74
2022/05/22 08:48:33;;;;;;;3.97;1.73;;;21.00;60.50;;;;;;5055361;28;21008;-75
2022/05/22 08:51:29;;;;;;;6.27;1.70;;;21.10;64.20;;;;;;5051604;28;20545;-75
2022/05/22 08:54:23;;;;;;;4.83;1.50;;;21.20;62.00;;;;;;5037968;28;20502;-75
2022/05/22 09:00:21;;;;;;;2.43;1.33;;;21.00;53.50;;;;;;5058037;28;20475;-75
2022/05/22 09:03:15;;;;;;;3.63;1.60;;;20.80;54.20;;;;;;5047842;28;20478;-75
2022/05/22 09:06:04;;;;;;;2.63;1.27;;;20.80;54.80;;;;;;5045354;28;20563;-75
2022/05/22 09:08:51;;;;;;;6.60;1.80;;;20.90;55.90;;;;;;5046858;28;21001;-75
2022/05/22 09:11:55;;;;;;;5.77;2.00;;;21.00;58.80;;;;;;5057254;28;21115;-75
2022/05/22 09:14:44;;;;;;;6.23;1.70;;;21.20;60.60;;;;;;5047035;28;20443;-75
2022/05/22 09:17:36;;;;;;;2.50;1.30;;;21.40;58.50;;;;;;5059024;28;20447;-74
2022/05/22 09:20:30;;;;;;;5.93;1.93;;;21.50;52.50;;;;;;5045568;28;20574;-75
2022/05/22 09:23:40;;;;;;;3.10;1.60;;;21.50;54.90;;;;;;5043026;28;20944;-75
2022/05/22 09:26:41;;;;;;;5.60;1.90;;;21.40;53.70;;;;;;5042895;28;20817;-75
2022/05/22 09:29:50;;;;;;;9.00;2.10;;;21.40;54.80;;;;;;5045280;28;20472;-76
2022/05/22 09:33:01;;;;;;;3.43;1.70;;;21.40;56.10;;;;;;5054445;28;20471;-75
2022/05/22 09:35:56;;;;;;;7.10;2.33;;;21.50;52.00;;;;;;5043090;28;20463;-75
2022/05/22 09:39:07;;;;;;;3.67;1.70;;;21.50;52.10;;;;;;5051185;28;20451;-75
2022/05/22 09:42:02;;;;;;;2.87;1.70;;;21.50;52.70;;;;;;5053594;28;20576;-75
2022/05/22 09:45:12;;;;;;;5.97;1.60;;;21.60;54.40;;;;;;5049539;28;20451;-75
2022/05/22 09:48:18;;;;;;;5.97;2.10;;;21.70;55.10;;;;;;5044594;28;20447;-75
2022/05/22 09:51:10;;;;;;;4.10;1.80;;;21.90;56.40;;;;;;5039247;28;20470;-75
2022/05/22 09:54:08;;;;;;;3.33;1.57;;;22.10;55.00;;;;;;5040029;28;20446;-74
2022/05/22 09:57:09;;;;;;;3.63;1.73;;;22.20;52.90;;;;;;5048209;28;20451;-74
2022/05/22 10:00:07;;;;;;;4.60;1.90;;;22.30;52.10;;;;;;5053022;28;20466;-75
2022/05/22 10:03:02;;;;;;;6.53;2.30;;;22.50;54.10;;;;;;5044800;28;20447;-75
2022/05/22 10:05:57;;;;;;;3.30;1.70;;;22.40;48.50;;;;;;5044828;28;20941;-75
2022/05/22 10:08:53;;;;;;;5.43;1.80;;;22.20;50.00;;;;;;5054005;28;21014;-75
2022/05/22 10:11:49;;;;;;;5.30;1.67;;;22.30;52.10;;;;;;5053965;28;20479;-74
2022/05/22 10:14:50;;;;;;;5.77;2.13;;;22.40;52.10;;;;;;5051181;28;20812;-75
2022/05/22 10:17:56;;;;;;;5.63;1.80;;;22.60;49.80;;;;;;5057449;28;21059;-75
2022/05/22 10:20:56;;;;;;;5.03;2.00;;;22.70;46.70;;;;;;5057034;28;20512;-75
2022/05/22 10:24:01;;;;;;;3.97;1.53;;;22.80;50.00;;;;;;5045004;28;20526;-75
2022/05/22 10:27:00;;;;;;;2.83;1.93;;;22.90;48.20;;;;;;5044866;28;21024;-75
2022/05/22 10:29:50;;;;;;;7.90;2.03;;;22.80;42.90;;;;;;5050378;28;21107;-75
2022/05/22 10:32:44;;;;;;;4.83;1.63;;;22.90;47.00;;;;;;5052374;28;20732;-75
2022/05/22 10:35:34;;;;;;;6.20;1.67;;;23.00;46.30;;;;;;5053464;28;20463;-75
2022/05/22 10:38:23;;;;;;;6.80;1.77;;;23.10;45.90;;;;;;5058065;28;20526;-75
2022/05/22 10:44:30;;;;;;;8.10;2.00;;;23.30;43.10;;;;;;5053021;28;21000;-75
2022/05/22 10:47:27;;;;;;;5.17;1.80;;;23.20;41.00;;;;;;5057367;28;20972;-74
2022/05/22 10:50:23;;;;;;;2.90;1.60;;;23.10;44.30;;;;;;5046820;28;20480;-75
2022/05/22 10:53:25;;;;;;;5.90;1.70;;;23.20;43.00;;;;;;5042799;28;20594;-75
2022/05/22 10:56:19;;;;;;;3.20;1.70;;;23.20;38.30;;;;;;5045400;28;20451;-74
2022/05/22 10:59:07;;;;;;;6.57;1.57;;;23.40;41.40;;;;;;5051245;28;20468;-75
2022/05/22 11:02:04;;;;;;;5.60;1.50;;;23.50;38.30;;;;;;5049509;28;20448;-74
2022/05/22 11:04:51;;;;;;;3.43;1.60;;;23.60;38.70;;;;;;5051202;28;20870;-75
2022/05/22 11:07:45;;;;;;;4.30;1.40;;;23.70;40.90;;;;;;5050167;28;20444;-74
2022/05/22 11:10:35;;;;;;;3.37;1.60;;;23.90;40.00;;;;;;5055265;28;20482;-74
2022/05/22 11:13:25;;;;;;;2.80;1.80;;;24.00;38.70;;;;;;5042255;28;20909;-74
2022/05/22 11:16:16;;;;;;;4.63;1.57;;;24.00;36.20;;;;;;5055323;28;20443;-74
2022/05/22 11:19:07;;;;;;;4.23;1.87;;;24.00;35.50;;;;;;5052131;28;20481;-75
2022/05/22 11:22:11;;;;;;;3.80;1.77;;;23.90;37.10;;;;;;5057709;28;20926;-75
2022/05/22 11:25:25;;;;;;;3.33;1.60;;;24.00;38.50;;;;;;5038147;28;20962;-73
2022/05/22 11:28:31;;;;;;;2.83;1.50;;;24.20;39.10;;;;;;5053956;28;20451;-74
2022/05/22 11:31:34;;;;;;;5.57;1.97;;;24.40;36.00;;;;;;5047405;28;20882;-74
2022/05/22 11:35:04;;;;;;;3.30;1.40;;;24.30;34.20;;;;;;5056365;28;20490;-75
2022/05/22 11:38:04;;;;;;;6.47;1.70;;;24.40;36.20;;;;;;5032489;28;20490;-75
2022/05/22 11:40:58;;;;;;;4.73;1.40;;;24.50;36.40;;;;;;5048490;28;20467;-74
2022/05/22 11:44:09;;;;;;;5.17;1.57;;;24.70;37.90;;;;;;5056940;28;20442;-74
2022/05/22 11:47:13;;;;;;;4.33;1.90;;;24.70;34.40;;;;;;5050029;28;20586;-75
2022/05/22 11:50:09;;;;;;;4.77;1.50;;;24.80;36.60;;;;;;5052437;28;20618;-75
2022/05/22 11:53:09;;;;;;;3.00;1.33;;;25.00;34.90;;;;;;5045785;28;20464;-75
2022/05/22 11:56:22;;;;;;;2.70;1.30;;;25.10;34.50;;;;;;5051159;28;20436;-75
2022/05/22 11:59:20;;;;;;;4.07;1.70;;;25.30;37.10;;;;;;5056302;28;20452;-74
2022/05/22 12:02:14;;;;;;;5.57;1.50;;;25.50;33.50;;;;;;5045135;28;20494;-74
2022/05/22 12:05:25;;;;;;;5.83;1.50;;;25.50;33.60;;;;;;5045736;28;20447;-75
2022/05/22 12:08:51;;;;;;;2.63;1.40;;;25.30;30.80;;;;;;5044308;28;20452;-75
2022/05/22 12:11:47;;;;;;;3.60;1.57;;;25.30;32.10;;;;;;5050621;28;20476;-74
2022/05/22 12:14:40;;;;;;;5.17;1.67;;;25.40;31.20;;;;;;5044543;28;20517;-74
2022/05/22 12:17:34;;;;;;;2.73;1.60;;;25.50;30.90;;;;;;5058826;28;20469;-73
2022/05/22 12:20:26;;;;;;;8.73;1.83;;;25.60;31.00;;;;;;5051777;28;21032;-75
2022/05/22 12:23:22;;;;;;;3.43;1.40;;;25.70;31.10;;;;;;5048264;28;20444;-75
2022/05/22 12:26:09;;;;;;;2.83;1.37;;;25.70;33.20;;;;;;5050404;28;20500;-75
2022/05/22 12:29:00;;;;;;;2.30;1.40;;;25.80;30.60;;;;;;5059957;28;20986;-75
2022/05/22 12:31:50;;;;;;;2.80;1.20;;;25.90;30.20;;;;;;5048394;28;20474;-75
2022/05/22 12:34:40;;;;;;;2.63;1.30;;;25.90;31.30;;;;;;5057544;28;20511;-74
2022/05/22 12:37:32;;;;;;;3.30;1.80;;;25.90;31.30;;;;;;5056434;28;20444;-75
2022/05/22 12:40:31;;;;;;;6.27;1.73;;;26.00;31.00;;;;;;5049185;28;20459;-74
2022/05/22 12:43:19;;;;;;;3.63;1.30;;;26.00;31.40;;;;;;5043578;28;20796;-74
2022/05/22 12:46:10;;;;;;;2.73;1.43;;;26.10;29.50;;;;;;5058324;28;21083;-74
2022/05/22 12:49:09;;;;;;;4.20;1.30;;;26.20;30.50;;;;;;5052655;28;20431;-74
2022/05/22 12:52:06;;;;;;;4.70;1.80;;;26.30;28.70;;;;;;5048733;28;20546;-75
2022/05/22 12:54:58;;;;;;;3.87;1.60;;;26.30;28.80;;;;;;5037918;28;20571;-75
2022/05/22 12:57:52;;;;;;;3.50;1.60;;;26.40;29.90;;;;;;5052771;28;20466;-75
2022/05/22 13:00:48;;;;;;;3.10;1.77;;;26.50;30.10;;;;;;5047233;28;21055;-75
2022/05/22 13:03:41;;;;;;;5.93;1.53;;;26.50;29.00;;;;;;5050736;28;20444;-73
2022/05/22 13:06:33;;;;;;;4.80;1.57;;;26.50;29.40;;;;;;5052768;28;20450;-75
2022/05/22 13:09:33;;;;;;;2.90;1.50;;;26.50;27.90;;;;;;5042313;28;20980;-74
2022/05/22 13:12:28;;;;;;;4.63;1.67;;;26.50;27.20;;;;;;5042835;28;20570;-75
2022/05/22 13:15:16;;;;;;;4.10;1.53;;;26.60;29.20;;;;;;5046821;28;21128;-75
2022/05/22 13:18:19;;;;;;;2.73;0.97;;;26.80;28.40;;;;;;5053941;28;20436;-75
2022/05/22 13:21:07;;;;;;;5.03;1.57;;;26.90;28.90;;;;;;5047381;28;20470;-75
2022/05/22 13:24:02;;;;;;;4.70;1.53;;;27.00;27.30;;;;;;5046062;28;20956;-74
2022/05/22 13:26:56;;;;;;;3.33;1.33;;;27.00;28.70;;;;;;5051725;28;20451;-75
2022/05/22 13:29:48;;;;;;;4.20;1.40;;;27.10;26.90;;;;;;5057581;28;21003;-75
2022/05/22 13:32:43;;;;;;;4.23;1.63;;;27.20;29.20;;;;;;5063294;28;20553;-75
2022/05/22 13:35:32;;;;;;;4.53;2.33;;;27.30;27.90;;;;;;5051176;28;20464;-75
2022/05/22 13:38:21;;;;;;;4.60;2.83;;;27.40;29.90;;;;;;5052111;28;20825;-75
2022/05/22 13:41:35;;;;;;;4.10;1.43;;;27.50;29.20;;;;;;5053777;28;20642;-75
2022/05/22 13:45:08;;;;;;;6.87;1.60;;;27.30;28.70;;;;;;5045537;28;20541;-75
2022/05/22 13:48:30;;;;;;;2.93;1.77;;;27.00;28.80;;;;;;5052204;28;20454;-75
2022/05/22 13:54:41;;;;;;;5.00;2.20;;;27.50;29.00;;;;;;5045570;28;20499;-75
2022/05/22 13:57:30;;;;;;;3.10;1.40;;;27.70;28.60;;;;;;5053390;28;20455;-75
2022/05/22 14:00:20;;;;;;;3.03;1.53;;;27.80;28.50;;;;;;5040650;28;20484;-73
2022/05/22 14:03:09;;;;;;;3.87;1.60;;;28.00;29.30;;;;;;5050834;28;20577;-75
2022/05/22 14:05:57;;;;;;;6.53;1.40;;;27.90;28.30;;;;;;5050074;28;20562;-75
2022/05/22 14:08:48;;;;;;;4.03;1.60;;;27.50;26.40;;;;;;5045177;28;20526;-75
2022/05/22 14:11:37;;;;;;;3.57;1.70;;;27.30;28.10;;;;;;5100044;22;20561;-77
2022/05/22 14:14:26;;;;;;;4.37;1.50;;;27.20;29.70;;;;;;5093385;28;20515;-75
2022/05/22 14:17:12;;;;;;;5.80;1.80;;;27.20;30.10;;;;;;5105235;28;20436;-75
2022/05/22 14:20:13;;;;;;;5.73;1.87;;;27.20;29.00;;;;;;5084928;28;20517;-77
2022/05/22 14:23:14;;;;;;;4.63;1.80;;;27.10;29.50;;;;;;5100514;28;20439;-77
2022/05/22 14:26:02;;;;;;;3.10;1.73;;;26.80;28.70;;;;;;5091972;28;20429;-77
2022/05/22 14:28:50;;;;;;;4.60;1.90;;;26.60;29.90;;;;;;5090636;28;20444;-77
2022/05/22 14:31:43;;;;;;;3.90;1.63;;;26.10;29.50;;;;;;5101205;28;20481;-77
2022/05/22 14:34:29;;;;;;;3.07;1.63;;;25.90;31.70;;;;;;5099354;28;20502;-77
2022/05/22 14:37:16;;;;;;;3.20;1.53;;;25.90;31.30;;;;;;5090966;28;20458;-77
2022/05/22 14:40:01;;;;;;;3.73;1.50;;;25.90;30.50;;;;;;5092591;28;20508;-77
2022/05/22 14:42:51;;;;;;;4.43;1.67;;;25.80;29.50;;;;;;5091203;28;20438;-76
2022/05/22 14:45:42;;;;;;;5.53;1.93;;;25.70;31.10;;;;;;5097005;28;20426;-77
2022/05/22 14:48:33;;;;;;;3.53;1.70;;;25.70;32.90;;;;;;5090434;28;20998;-77
2022/05/22 14:51:30;;;;;;;3.57;2.00;;;25.80;31.70;;;;;;5085724;28;20466;-77
2022/05/22 14:54:20;;;;;;;3.47;1.70;;;25.80;32.20;;;;;;5094784;28;20474;-77
2022/05/22 14:57:10;;;;;;;4.60;1.50;;;25.80;34.20;;;;;;5090413;28;20807;-75
2022/05/22 14:59:59;;;;;;;3.77;1.63;;;25.90;32.50;;;;;;5096693;28;20537;-77
2022/05/22 15:02:52;;;;;;;2.40;1.17;;;25.90;33.40;;;;;;5097587;28;20490;-77
2022/05/22 15:05:40;;;;;;;4.10;1.30;;;26.00;32.10;;;;;;5089913;28;21018;-77
2022/05/22 15:08:29;;;;;;;4.67;1.70;;;26.00;31.40;;;;;;5088695;28;20457;-77
2022/05/22 15:11:17;;;;;;;4.03;1.73;;;26.10;31.70;;;;;;5089382;28;20477;-76